Kirsten H — WY7979 — position and weather

sailwx.info

Track history (hours):
 
Tides and Currents Weather Stations Pressure Air Temp Water Temp Dewpoint Dewpoint Depression Visibility Wind Speed Wind Dir Waves Ship Positions

Kirsten H

Owner: BOYER TOWING, KETCHIKAN, AK. More information available from US FCC via Universal Licensing System and Coast Guard Vessel Documentation Center.

Last reported at 2016-Mar-12 19:31 UTC. Time now 2016-Jun-30 21:27 UTC.
Position N 52°15' W 128°17'.
Warning: this ship's position is months out of date.

Length 22 m; draft 3.7 m.

Type: Tow > 200 m length. MMSI: 366623050.

Date/timePositionNaut miles runAvg speedWind from/ knotsBaromVisibWave heightAir tempDewpointWater temp
2016-Mar-12 19:31N 52°15' W 128°17'8 7.9
2016-Mar-12 18:33N 52°09' W 128°08'9 9.1
2016-Mar-12 17:31N 52°03' W 127°57'5410.7
2016-Mar-12 12:27N 51°09' W 127°51'1011.1
2016-Mar-12 11:33N 51°02' W 127°38'1010.4
2016-Mar-12 10:33N 50°55' W 127°26'10 9.8
2016-Mar-12 09:33N 50°50' W 127°13'7610.8
2016-Mar-12 02:31N 50°18' W 125°25'10 9.9
2016-Mar-12 01:33N 50°08' W 125°21'1 1.5
2016-Mar-12 00:33N 50°07' W 125°22'1 0.5
2016-Mar-11 23:34N 50°07' W 125°22'0 0.1
2016-Mar-11 22:34N 50°07' W 125°21'6 5.7
2016-Mar-11 21:33N 50°03' W 125°15'1010.1
2016-Mar-11 20:33N 49°55' W 125°06'1010.2
2016-Mar-11 19:33N 49°49' W 124°53'1110.9
2016-Mar-11 18:33N 49°43' W 124°40'1110.9
2016-Mar-11 17:33N 49°36' W 124°26'1110.9
2016-Mar-11 16:33N 49°30' W 124°12'1010.4
2016-Mar-11 15:33N 49°25' W 123°58'1010.2
2016-Mar-11 14:33N 49°19' W 123°45'1010.6
2016-Mar-11 13:33N 49°12' W 123°33'1111.0
2016-Mar-11 12:33N 49°05' W 123°21'1111.6
2016-Mar-11 11:33N 48°57' W 123°08'1110.9
2016-Mar-11 10:31N 48°50' W 122°54'1010.6
2016-Mar-11 09:33N 48°43' W 122°43'10 9.6
2016-Mar-11 08:33N 48°33' W 122°45'9 8.8
2016-Mar-11 07:33N 48°24' W 122°44'2310.5
2016-Mar-11 05:21N 48°02' W 122°37'1012.4
2016-Mar-11 04:33N 47°54' W 122°29'1111.2
2016-Mar-11 03:33N 47°42' W 122°26'8 8.0
2016-Mar-11 02:33N 47°35' W 122°21'0 0.0
2016-Mar-11 01:33N 47°35' W 122°21'0 0.0
2016-Mar-11 00:33N 47°35' W 122°21'3 3.2
2016-Mar-10 23:33N 47°32' W 122°20'  
Track history (hours):
 
Tides and Currents Weather Stations Pressure Air Temp Water Temp Dewpoint Dewpoint Depression Visibility Wind Speed Wind Dir Waves Ship Positions

Kirsten H

Owner: BOYER TOWING, KETCHIKAN, AK. More information available from US FCC via Universal Licensing System and Coast Guard Vessel Documentation Center.

Last reported at 2016-Mar-12 19:31 UTC. Time now 2016-Jun-30 21:27 UTC.
Position N 52°15' W 128°17'.
Warning: this ship's position is months out of date.

Length 22 m; draft 3.7 m.

Type: Tow > 200 m length. MMSI: 366623050.

Date/timePositionNaut miles runAvg speedWind from/ knotsBaromVisibWave heightAir tempDewpointWater temp
2016-Mar-12 19:31N 52°15' W 128°17'8 7.9
2016-Mar-12 18:33N 52°09' W 128°08'9 9.1
2016-Mar-12 17:31N 52°03' W 127°57'5410.7
2016-Mar-12 12:27N 51°09' W 127°51'1011.1
2016-Mar-12 11:33N 51°02' W 127°38'1010.4
2016-Mar-12 10:33N 50°55' W 127°26'10 9.8
2016-Mar-12 09:33N 50°50' W 127°13'7610.8
2016-Mar-12 02:31N 50°18' W 125°25'10 9.9
2016-Mar-12 01:33N 50°08' W 125°21'1 1.5
2016-Mar-12 00:33N 50°07' W 125°22'1 0.5
2016-Mar-11 23:34N 50°07' W 125°22'0 0.1
2016-Mar-11 22:34N 50°07' W 125°21'6 5.7
2016-Mar-11 21:33N 50°03' W 125°15'1010.1
2016-Mar-11 20:33N 49°55' W 125°06'1010.2
2016-Mar-11 19:33N 49°49' W 124°53'1110.9
2016-Mar-11 18:33N 49°43' W 124°40'1110.9
2016-Mar-11 17:33N 49°36' W 124°26'1110.9
2016-Mar-11 16:33N 49°30' W 124°12'1010.4
2016-Mar-11 15:33N 49°25' W 123°58'1010.2
2016-Mar-11 14:33N 49°19' W 123°45'1010.6
2016-Mar-11 13:33N 49°12' W 123°33'1111.0
2016-Mar-11 12:33N 49°05' W 123°21'1111.6
2016-Mar-11 11:33N 48°57' W 123°08'1110.9
2016-Mar-11 10:31N 48°50' W 122°54'1010.6
2016-Mar-11 09:33N 48°43' W 122°43'10 9.6
2016-Mar-11 08:33N 48°33' W 122°45'9 8.8
2016-Mar-11 07:33N 48°24' W 122°44'2310.5
2016-Mar-11 05:21N 48°02' W 122°37'1012.4
2016-Mar-11 04:33N 47°54' W 122°29'1111.2
2016-Mar-11 03:33N 47°42' W 122°26'8 8.0
2016-Mar-11 02:33N 47°35' W 122°21'0 0.0
2016-Mar-11 01:33N 47°35' W 122°21'0 0.0
2016-Mar-11 00:33N 47°35' W 122°21'3 3.2
2016-Mar-10 23:33N 47°32' W 122°20'  

Dump ship's entire track history